Time;durP1;ratioP1;P1;durP2;ratioP2;P2;SDS_P1;SDS_P2;PMS_P1;PMS_P2;Temp;Humidity;BMP_temperature;BMP_pressure;BME280_temperature;BME280_humidity;BME280_pressure;Samples;Min_cycle;Max_cycle;Signal;HPM_P1;HPM_P2
2023/02/10 00:00:08;;;;;;;;;;;27.10;99.90;;;;;;5065050;28;19986;-66
2023/02/10 00:02:38;;;;;;;;;;;27.10;99.90;;;;;;5046461;28;19934;-67
2023/02/10 00:05:04;;;;;;;;;;;27.40;99.90;;;;;;5063839;28;19935;-63
2023/02/10 00:07:30;;;;;;;;;;;27.70;99.90;;;;;;5064107;28;20012;-67
2023/02/10 00:09:57;;;;;;;;;;;27.80;99.90;;;;;;5065177;28;20356;-64
2023/02/10 00:12:23;;;;;;;;;;;27.80;99.90;;;;;;5066176;28;19970;-66
2023/02/10 00:14:49;;;;;;;;;;;27.80;99.90;;;;;;5065651;28;20361;-64
2023/02/10 00:17:17;;;;;;;;;;;28.10;99.90;;;;;;5064427;28;19955;-70
2023/02/10 00:19:43;;;;;;;;;;;28.10;99.90;;;;;;5064847;28;19913;-66
2023/02/10 00:22:09;;;;;;;;;;;28.10;99.90;;;;;;5065076;28;19927;-63
2023/02/10 00:24:36;;;;;;;;;;;28.20;99.90;;;;;;5064695;28;20331;-67
2023/02/10 00:27:02;;;;;;;;;;;28.20;99.90;;;;;;5064098;28;19991;-67
2023/02/10 00:29:31;;;;;;;;;;;28.50;99.90;;;;;;5065730;28;19912;-66
2023/02/10 00:32:12;;;;;;;;;;;28.70;99.90;;;;;;4901323;28;10000490;-66
2023/02/10 00:34:39;;;;;;;;;;;28.90;99.90;;;;;;5061786;28;20038;-63
2023/02/10 00:37:05;;;;;;;;;;;29.30;99.90;;;;;;5044875;28;19981;-67
2023/02/10 00:39:32;;;;;;;;;;;29.30;99.90;;;;;;5061548;28;20279;-63
2023/02/10 00:41:58;;;;;;;;;;;29.40;99.90;;;;;;5062685;28;20058;-62
2023/02/10 00:44:24;;;;;;;;;;;29.60;99.90;;;;;;5060623;28;19912;-63
2023/02/10 00:46:51;;;;;;;;;;;29.80;99.90;;;;;;5061313;28;19916;-68
2023/02/10 00:49:17;;;;;;;;;;;29.90;99.90;;;;;;5061677;28;19913;-61
2023/02/10 00:51:43;;;;;;;;;;;29.90;99.90;;;;;;5062021;28;20444;-69
2023/02/10 00:54:13;;;;;;;;;;;29.90;99.40;;;;;;5061202;28;19951;-61
2023/02/10 00:56:39;;;;;;;;;;;29.60;98.80;;;;;;5058313;28;19927;-63
2023/02/10 00:59:06;;;;;;;;;;;30.00;99.90;;;;;;5060517;28;20691;-65
2023/02/10 01:01:32;;;;;;;;;;;30.10;99.20;;;;;;5058406;28;19925;-64
2023/02/10 01:03:59;;;;;;;;;;;30.30;99.30;;;;;;5060498;28;19916;-65
2023/02/10 01:06:25;;;;;;;;;;;30.20;99.30;;;;;;5060575;28;19904;-63
2023/02/10 01:08:51;;;;;;;;;;;30.30;99.60;;;;;;5058859;28;19916;-63
2023/02/10 01:11:18;;;;;;;;;;;30.40;99.90;;;;;;5060623;28;20368;-68
2023/02/10 01:13:44;;;;;;;;;;;30.60;98.40;;;;;;5060624;28;19916;-66
2023/02/10 01:16:13;;;;;;;;;;;30.70;99.00;;;;;;5058183;28;19908;-64
2023/02/10 01:18:40;;;;;;;;;;;30.80;98.10;;;;;;5058702;28;20404;-68
2023/02/10 01:21:10;;;;;;;;;;;30.80;97.90;;;;;;5057044;28;19927;-67
2023/02/10 01:23:37;;;;;;;;;;;31.00;98.80;;;;;;5060789;28;19972;-64
2023/02/10 01:26:03;;;;;;;;;;;31.20;98.70;;;;;;5059520;28;20357;-63
2023/02/10 01:28:30;;;;;;;;;;;31.70;98.10;;;;;;5057967;28;19932;-65
2023/02/10 01:30:56;;;;;;;;;;;31.70;97.90;;;;;;5060117;28;20364;-64
2023/02/10 01:33:23;;;;;;;;;;;32.10;97.70;;;;;;5040064;28;20016;-65
2023/02/10 01:35:49;;;;;;;;;;;32.30;95.70;;;;;;5059989;28;19919;-65
2023/02/10 01:38:15;;;;;;;;;;;32.40;96.30;;;;;;5060202;28;20330;-67
2023/02/10 01:40:42;;;;;;;;;;;32.40;96.10;;;;;;5059877;28;19912;-68
2023/02/10 01:43:15;;;;;;;;;;;32.60;96.00;;;;;;5058410;28;19924;-63
2023/02/10 01:45:42;;;;;;;;;;;32.80;95.30;;;;;;5059371;28;20203;-65
2023/02/10 01:48:09;;;;;;;;;;;32.80;93.90;;;;;;5060065;28;19912;-63
2023/02/10 01:50:42;;;;;;;;;;;33.20;92.80;;;;;;5058209;28;19924;-64
2023/02/10 01:53:08;;;;;;;;;;;33.20;93.90;;;;;;5059207;28;19915;-66
2023/02/10 01:55:36;;;;;;;;;;;33.40;94.10;;;;;;5060062;28;19923;-68
2023/02/10 01:58:04;;;;;;;;;;;33.30;94.30;;;;;;5057150;28;19913;-66
2023/02/10 02:00:30;;;;;;;;;;;33.30;94.40;;;;;;5049824;28;19916;-66
2023/02/10 02:02:57;;;;;;;;;;;33.50;93.60;;;;;;5051603;28;20944;-67
2023/02/10 02:05:40;;;;;;;;;;;33.60;93.20;;;;;;5051456;28;20012;-64
2023/02/10 02:08:06;;;;;;;;;;;33.90;93.90;;;;;;5051097;28;19919;-62
2023/02/10 02:10:43;;;;;;;;;;;34.10;91.70;;;;;;5051481;28;20752;-66
2023/02/10 02:13:13;;;;;;;;;;;33.90;91.00;;;;;;5053090;28;19913;-61
2023/02/10 02:15:42;;;;;;;;;;;33.90;91.60;;;;;;5051846;28;19971;-62
2023/02/10 02:18:16;;;;;;;;;;;34.10;91.70;;;;;;5051779;28;19923;-67
2023/02/10 02:21:14;;;;;;;;;;;34.30;90.90;;;;;;5049513;28;19923;-62
2023/02/10 02:23:49;;;;;;;;;;;34.30;91.20;;;;;;4959417;28;19918;-66
2023/02/10 02:26:16;;;;;;;;;;;34.50;92.00;;;;;;4958914;28;20381;-62
2023/02/10 02:28:51;;;;;;;;;;;34.70;89.00;;;;;;4958647;28;20408;-61
2023/02/10 02:31:36;;;;;;;;;;;34.80;88.20;;;;;;4958052;28;19984;-62
2023/02/10 02:34:06;;;;;;;;;;;35.00;86.90;;;;;;4957856;28;20001;-66
2023/02/10 02:36:37;;;;;;;;;;;35.10;87.00;;;;;;4958816;28;19985;-66
2023/02/10 02:39:04;;;;;;;;;;;35.20;88.30;;;;;;4953210;28;19921;-61
2023/02/10 02:41:31;;;;;;;;;;;35.40;88.20;;;;;;4956928;28;20008;-63
2023/02/10 02:43:59;;;;;;;;;;;35.40;88.30;;;;;;4957170;28;19914;-69
2023/02/10 02:46:28;;;;;;;;;;;35.60;87.50;;;;;;4958117;28;20779;-62
2023/02/10 02:48:58;;;;;;;;;;;35.60;82.50;;;;;;4957828;28;19910;-64
2023/02/10 02:51:27;;;;;;;;;;;35.20;83.60;;;;;;4958651;28;20315;-68
2023/02/10 02:54:16;;;;;;;;;;;35.40;84.10;;;;;;4959053;28;20513;-68
2023/02/10 02:56:49;;;;;;;;;;;35.40;86.00;;;;;;4949034;28;19918;-69
2023/02/10 02:59:15;;;;;;;;;;;35.30;84.90;;;;;;5001873;28;19943;-68
2023/02/10 03:02:01;;;;;;;;;;;35.40;83.50;;;;;;5048169;28;19965;-61
2023/02/10 03:04:31;;;;;;;;;;;35.90;83.90;;;;;;5050561;28;19904;-68
2023/02/10 03:06:58;;;;;;;;;;;36.40;82.60;;;;;;5049693;28;19908;-67
2023/02/10 03:09:24;;;;;;;;;;;36.70;79.90;;;;;;5050458;28;20431;-63
2023/02/10 03:11:51;;;;;;;;;;;36.30;79.80;;;;;;5050666;28;19908;-63
2023/02/10 03:14:17;;;;;;;;;;;36.20;80.70;;;;;;5051229;28;20438;-63
2023/02/10 03:16:43;;;;;;;;;;;36.40;80.30;;;;;;5038684;28;19908;-64
2023/02/10 03:19:10;;;;;;;;;;;36.60;81.20;;;;;;5050435;28;19919;-67
2023/02/10 03:21:36;;;;;;;;;;;36.80;82.40;;;;;;5049563;28;20494;-65
2023/02/10 03:24:03;;;;;;;;;;;37.00;82.10;;;;;;5050170;28;19916;-65
2023/02/10 03:26:30;;;;;;;;;;;36.90;80.60;;;;;;5047932;28;20466;-67
2023/02/10 03:28:56;;;;;;;;;;;37.00;80.00;;;;;;5050370;28;19924;-68
2023/02/10 03:31:23;;;;;;;;;;;37.20;80.30;;;;;;5049186;28;19912;-67
2023/02/10 03:33:49;;;;;;;;;;;37.10;80.30;;;;;;5052386;28;20336;-65
2023/02/10 03:36:15;;;;;;;;;;;37.00;79.00;;;;;;5052339;28;19944;-69
2023/02/10 03:38:42;;;;;;;;;;;37.10;77.70;;;;;;5052433;28;20263;-66
2023/02/10 03:41:08;;;;;;;;;;;36.80;79.40;;;;;;5052718;28;19915;-64
2023/02/10 03:43:35;;;;;;;;;;;36.50;78.50;;;;;;5049909;28;19942;-69
2023/02/10 03:46:02;;;;;;;;;;;36.60;79.80;;;;;;5047926;28;19923;-64
2023/02/10 03:48:31;;;;;;;;;;;36.80;78.80;;;;;;5051472;28;20418;-68
2023/02/10 03:50:58;;;;;;;;;;;36.90;77.30;;;;;;5054367;28;19919;-62
2023/02/10 03:53:25;;;;;;;;;;;36.90;77.30;;;;;;5053841;28;19947;-62
2023/02/10 03:55:51;;;;;;;;;;;36.40;77.70;;;;;;5053181;28;19916;-68
2023/02/10 03:58:18;;;;;;;;;;;36.40;77.90;;;;;;5053191;28;19936;-65
2023/02/10 04:00:44;;;;;;;;;;;36.20;78.60;;;;;;5051664;28;19908;-67
2023/02/10 04:03:10;;;;;;;;;;;36.20;78.20;;;;;;5051454;28;20283;-61
2023/02/10 04:05:37;;;;;;;;;;;36.50;76.70;;;;;;5053312;28;19966;-69
2023/02/10 04:08:03;;;;;;;;;;;36.30;78.60;;;;;;5048733;28;20389;-68
2023/02/10 04:10:30;;;;;;;;;;;36.50;76.10;;;;;;5050850;28;20256;-62
2023/02/10 04:12:56;;;;;;;;;;;36.50;77.40;;;;;;5053385;28;19909;-66
2023/02/10 04:15:22;;;;;;;;;;;36.40;77.00;;;;;;5053311;28;20307;-65
2023/02/10 04:17:49;;;;;;;;;;;36.60;75.80;;;;;;5053012;28;19912;-62
2023/02/10 04:20:15;;;;;;;;;;;36.30;76.40;;;;;;5040032;28;20238;-66
2023/02/10 04:22:42;;;;;;;;;;;36.10;76.50;;;;;;5052607;28;19923;-63
2023/02/10 04:25:08;;;;;;;;;;;36.30;77.70;;;;;;5052058;28;19948;-70
2023/02/10 04:27:35;;;;;;;;;;;36.80;76.20;;;;;;5052603;28;20010;-67
2023/02/10 04:30:01;;;;;;;;;;;36.90;74.90;;;;;;5051851;28;19912;-63
2023/02/10 04:32:27;;;;;;;;;;;37.10;76.30;;;;;;5052666;28;19915;-65
2023/02/10 04:34:56;;;;;;;;;;;37.00;75.00;;;;;;5052381;28;20450;-65
2023/02/10 04:37:23;;;;;;;;;;;36.80;77.60;;;;;;5050338;28;20491;-62
2023/02/10 04:39:49;;;;;;;;;;;37.40;77.60;;;;;;5051416;28;19912;-63
2023/02/10 04:42:15;;;;;;;;;;;37.70;76.00;;;;;;5051595;28;20333;-62
2023/02/10 04:44:42;;;;;;;;;;;37.80;74.90;;;;;;5051187;28;19944;-66
2023/02/10 04:47:08;;;;;;;;;;;37.60;76.60;;;;;;5052580;28;19999;-64
2023/02/10 04:49:34;;;;;;;;;;;37.80;76.10;;;;;;5051765;28;19973;-69
2023/02/10 04:52:01;;;;;;;;;;;38.30;74.60;;;;;;5049719;28;19916;-62
2023/02/10 04:54:27;;;;;;;;;;;38.30;73.40;;;;;;5050938;28;19923;-62
2023/02/10 04:56:54;;;;;;;;;;;38.50;74.40;;;;;;5051404;28;19913;-67
2023/02/10 04:59:20;;;;;;;;;;;38.40;72.30;;;;;;5051297;28;19920;-67
2023/02/10 05:01:46;;;;;;;;;;;38.60;73.20;;;;;;5049182;28;19916;-67
2023/02/10 05:04:13;;;;;;;;;;;38.60;72.60;;;;;;5051729;28;19908;-63
2023/02/10 05:06:39;;;;;;;;;;;38.60;74.10;;;;;;5051306;28;19936;-67
2023/02/10 05:09:05;;;;;;;;;;;38.70;71.70;;;;;;5050365;28;19916;-67
2023/02/10 05:11:32;;;;;;;;;;;39.20;71.80;;;;;;5050852;28;19988;-68
2023/02/10 05:13:58;;;;;;;;;;;39.40;71.30;;;;;;5052190;28;19912;-67
2023/02/10 05:16:25;;;;;;;;;;;38.90;69.90;;;;;;5040944;28;19909;-66
2023/02/10 05:18:51;;;;;;;;;;;38.90;71.50;;;;;;5050869;28;20452;-66
2023/02/10 05:21:17;;;;;;;;;;;39.30;72.30;;;;;;5050586;28;19908;-68
2023/02/10 05:23:44;;;;;;;;;;;38.60;72.20;;;;;;5051680;28;19955;-65
2023/02/10 05:26:10;;;;;;;;;;;38.80;71.70;;;;;;5050505;28;19909;-66
2023/02/10 05:28:36;;;;;;;;;;;39.60;71.70;;;;;;5050876;28;20381;-65
2023/02/10 05:31:08;;;;;;;;;;;39.60;71.00;;;;;;5052298;28;19908;-65
2023/02/10 05:33:34;;;;;;;;;;;40.00;71.90;;;;;;5051724;28;20330;-64
2023/02/10 05:36:01;;;;;;;;;;;40.30;71.70;;;;;;5051167;28;19947;-66
2023/02/10 05:38:28;;;;;;;;;;;40.50;69.70;;;;;;5051538;28;19912;-67
2023/02/10 05:40:54;;;;;;;;;;;40.70;68.60;;;;;;5051149;28;19951;-67
2023/02/10 05:43:20;;;;;;;;;;;40.30;69.40;;;;;;5051209;28;19913;-66
2023/02/10 05:45:47;;;;;;;;;;;40.20;70.30;;;;;;5053395;28;19916;-66
2023/02/10 05:48:14;;;;;;;;;;;40.50;69.70;;;;;;5052041;28;19951;-68
2023/02/10 05:50:41;;;;;;;;;;;40.50;68.20;;;;;;5049332;28;20075;-64
2023/02/10 05:53:08;;;;;;;;;;;40.70;69.70;;;;;;5049447;28;19917;-65
2023/02/10 05:55:34;;;;;;;;;;;40.80;68.70;;;;;;5049725;28;19912;-65
2023/02/10 05:58:00;;;;;;;;;;;40.90;68.20;;;;;;5050374;28;19927;-65
2023/02/10 06:00:27;;;;;;;;;;;41.00;65.70;;;;;;5049003;28;19923;-64
2023/02/10 06:02:53;;;;;;;;;;;40.50;66.50;;;;;;5049651;28;19928;-65
2023/02/10 06:05:20;;;;;;;;;;;40.10;68.40;;;;;;5050972;28;20016;-64
2023/02/10 06:07:46;;;;;;;;;;;40.20;67.80;;;;;;5050551;28;19908;-64
2023/02/10 06:10:12;;;;;;;;;;;40.30;66.10;;;;;;5050685;28;20388;-65
2023/02/10 06:12:39;;;;;;;;;;;40.30;67.40;;;;;;5051193;28;19919;-64
2023/02/10 06:15:05;;;;;;;;;;;40.30;67.80;;;;;;5044504;28;19905;-64
2023/02/10 06:17:32;;;;;;;;;;;40.40;66.30;;;;;;5040903;28;20759;-63
2023/02/10 06:19:59;;;;;;;;;;;40.00;67.00;;;;;;5042866;28;20353;-63
2023/02/10 06:22:25;;;;;;;;;;;40.10;68.10;;;;;;5028995;28;19912;-65
2023/02/10 06:24:51;;;;;;;;;;;40.20;69.30;;;;;;5044605;28;19931;-64
2023/02/10 06:27:18;;;;;;;;;;;40.60;66.80;;;;;;5044981;28;19909;-65
2023/02/10 06:29:44;;;;;;;;;;;40.10;66.40;;;;;;5041925;28;20011;-64
2023/02/10 06:32:11;;;;;;;;;;;39.20;67.00;;;;;;5034503;28;19982;-65
2023/02/10 06:34:37;;;;;;;;;;;39.10;68.00;;;;;;5036403;28;19913;-69
2023/02/10 06:37:03;;;;;;;;;;;39.20;67.00;;;;;;5036054;28;19916;-63
2023/02/10 06:39:30;;;;;;;;;;;39.40;68.40;;;;;;5017550;28;20353;-65
2023/02/10 06:41:57;;;;;;;;;;;39.50;66.90;;;;;;5042437;28;20548;-64
2023/02/10 06:44:24;;;;;;;;;;;39.40;66.80;;;;;;5049405;28;19912;-65
2023/02/10 06:46:50;;;;;;;;;;;38.60;68.50;;;;;;5049796;28;19923;-64
2023/02/10 06:49:16;;;;;;;;;;;38.00;67.20;;;;;;5049387;28;19969;-62
2023/02/10 06:51:43;;;;;;;;;;;37.30;72.50;;;;;;5046803;28;19940;-63
2023/02/10 06:54:09;;;;;;;;;;;36.80;75.80;;;;;;5049849;28;20162;-65
2023/02/10 06:56:35;;;;;;;;;;;36.30;77.40;;;;;;5047701;28;19940;-62
2023/02/10 06:59:02;;;;;;;;;;;36.60;77.70;;;;;;5050110;28;19927;-66
2023/02/10 07:01:28;;;;;;;;;;;37.20;77.40;;;;;;5043455;28;19927;-66
2023/02/10 07:03:54;;;;;;;;;;;37.20;78.00;;;;;;5044331;28;19912;-62
2023/02/10 07:06:21;;;;;;;;;;;38.10;77.00;;;;;;5047202;28;20539;-65
2023/02/10 07:08:50;;;;;;;;;;;38.70;77.30;;;;;;5051178;28;19942;-63
2023/02/10 07:11:16;;;;;;;;;;;38.60;76.70;;;;;;5051831;28;19923;-64
2023/02/10 07:13:43;;;;;;;;;;;37.10;79.00;;;;;;5052721;28;19916;-67
2023/02/10 07:16:14;;;;;;;;;;;37.20;80.00;;;;;;5052280;28;20424;-63
2023/02/10 07:18:40;;;;;;;;;;;37.40;79.90;;;;;;5053318;28;19920;-68
2023/02/10 07:21:07;;;;;;;;;;;38.00;78.60;;;;;;5048865;28;19923;-62
2023/02/10 07:23:33;;;;;;;;;;;38.10;78.10;;;;;;5052488;28;19978;-64
2023/02/10 07:26:00;;;;;;;;;;;38.30;78.20;;;;;;5052587;28;20394;-65
2023/02/10 07:28:26;;;;;;;;;;;38.20;78.70;;;;;;5051969;28;19924;-64
2023/02/10 07:30:52;;;;;;;;;;;38.40;78.00;;;;;;5051993;28;19912;-62
2023/02/10 07:33:19;;;;;;;;;;;38.80;78.00;;;;;;5052889;28;19913;-67
2023/02/10 07:35:45;;;;;;;;;;;38.80;77.20;;;;;;5051488;28;20106;-64
2023/02/10 07:38:11;;;;;;;;;;;38.80;78.30;;;;;;4701513;28;10000651;-64
2023/02/10 07:40:38;;;;;;;;;;;38.80;77.70;;;;;;5048097;28;20653;-64
2023/02/10 07:43:04;;;;;;;;;;;38.90;76.50;;;;;;5049826;28;19923;-69
2023/02/10 07:45:30;;;;;;;;;;;38.60;76.90;;;;;;5047926;28;19913;-64
2023/02/10 07:47:57;;;;;;;;;;;38.40;77.80;;;;;;5050067;28;19923;-64
2023/02/10 07:50:24;;;;;;;;;;;38.40;78.10;;;;;;5048546;28;20411;-65
2023/02/10 07:52:51;;;;;;;;;;;38.50;77.80;;;;;;5049170;28;20463;-62
2023/02/10 07:55:17;;;;;;;;;;;38.30;78.20;;;;;;5047775;28;19959;-62
2023/02/10 07:57:43;;;;;;;;;;;38.10;78.70;;;;;;5048709;28;19912;-61
2023/02/10 08:00:12;;;;;;;;;;;38.30;78.50;;;;;;5046924;28;19920;-65
2023/02/10 08:02:38;;;;;;;;;;;38.30;78.90;;;;;;5048766;28;20270;-62
2023/02/10 08:05:05;;;;;;;;;;;37.70;79.10;;;;;;5049229;28;19916;-62
2023/02/10 08:07:31;;;;;;;;;;;36.30;81.20;;;;;;5048721;28;19916;-61
2023/02/10 08:09:57;;;;;;;;;;;35.40;83.10;;;;;;5049080;28;19913;-63
2023/02/10 08:12:24;;;;;;;;;;;34.20;85.50;;;;;;5047955;28;20297;-66
2023/02/10 08:14:50;;;;;;;;;;;33.40;87.40;;;;;;5046479;28;19946;-64
2023/02/10 08:17:16;;;;;;;;;;;32.50;90.00;;;;;;5051530;28;19947;-67
2023/02/10 08:19:43;;;;;;;;;;;32.10;90.10;;;;;;5051802;28;20434;-62
2023/02/10 08:22:09;;;;;;;;;;;31.60;90.80;;;;;;5049484;28;19927;-63
2023/02/10 08:24:36;;;;;;;;;;;31.10;91.40;;;;;;5041798;28;20440;-63
2023/02/10 08:27:04;;;;;;;;;;;30.60;92.00;;;;;;5052587;28;19908;-62
2023/02/10 08:29:30;;;;;;;;;;;30.10;93.00;;;;;;5052287;28;19977;-62
2023/02/10 08:31:56;;;;;;;;;;;29.80;93.60;;;;;;5050995;28;19908;-63
2023/02/10 08:34:23;;;;;;;;;;;29.60;93.80;;;;;;5050190;28;19912;-68
2023/02/10 08:36:49;;;;;;;;;;;29.50;94.40;;;;;;5052264;28;19912;-62
2023/02/10 08:39:16;;;;;;;;;;;29.40;94.50;;;;;;5051593;28;19908;-62
2023/02/10 08:41:42;;;;;;;;;;;29.30;94.70;;;;;;5052121;28;20327;-67
2023/02/10 08:44:10;;;;;;;;;;;29.00;95.30;;;;;;5051057;28;19920;-62
2023/02/10 08:46:36;;;;;;;;;;;28.80;95.80;;;;;;5051632;28;20037;-63
2023/02/10 08:49:02;;;;;;;;;;;28.50;96.60;;;;;;5051731;28;20301;-63
2023/02/10 08:51:30;;;;;;;;;;;28.20;96.90;;;;;;5051769;28;19909;-68
2023/02/10 08:53:56;;;;;;;;;;;28.10;97.30;;;;;;5051585;28;20443;-62
2023/02/10 08:56:23;;;;;;;;;;;27.90;97.90;;;;;;5050971;28;19990;-64
2023/02/10 08:58:50;;;;;;;;;;;27.70;99.70;;;;;;5051146;28;19940;-65
2023/02/10 09:01:18;;;;;;;;;;;27.40;99.90;;;;;;5051753;28;20399;-64
2023/02/10 09:03:44;;;;;;;;;;;27.10;99.90;;;;;;5051224;28;19972;-63
2023/02/10 09:06:18;;;;;;;;;;;26.90;99.90;;;;;;5051502;28;19908;-64
2023/02/10 09:08:47;;;;;;;;;;;26.80;99.90;;;;;;5051379;28;20349;-68
2023/02/10 09:11:16;;;;;;;;;;;26.70;99.90;;;;;;5051450;28;20292;-62
2023/02/10 09:13:43;;;;;;;;;;;26.50;99.90;;;;;;5051702;28;19915;-68
2023/02/10 09:16:09;;;;;;;;;;;26.40;99.90;;;;;;5051893;28;19912;-63
2023/02/10 09:18:35;;;;;;;;;;;26.30;99.90;;;;;;5051702;28;20377;-62
2023/02/10 09:21:02;;;;;;;;;;;26.20;99.90;;;;;;5049978;28;20403;-64
2023/02/10 09:23:28;;;;;;;;;;;26.10;99.90;;;;;;5051546;28;19920;-64
2023/02/10 09:25:56;;;;;;;;;;;25.90;99.90;;;;;;5050350;28;19909;-64
2023/02/10 09:28:22;;;;;;;;;;;25.80;99.90;;;;;;5051327;28;19915;-64
2023/02/10 09:30:49;;;;;;;;;;;25.70;99.90;;;;;;5050845;28;20463;-63
2023/02/10 09:33:16;;;;;;;;;;;25.60;99.90;;;;;;5051588;28;20626;-64
2023/02/10 09:35:42;;;;;;;;;;;25.50;99.90;;;;;;5050726;28;19917;-62
2023/02/10 09:38:09;;;;;;;;;;;25.50;99.90;;;;;;5039391;28;19915;-65
2023/02/10 09:40:56;;;;;;;;;;;25.50;99.90;;;;;;5050191;28;19970;-64
2023/02/10 09:43:31;;;;;;;;;;;25.40;99.90;;;;;;5050721;28;19943;-64
2023/02/10 09:46:10;;;;;;;;;;;25.30;99.90;;;;;;5050321;28;19908;-63
2023/02/10 09:48:46;;;;;;;;;;;25.30;99.90;;;;;;5054943;28;19953;-61
2023/02/10 09:51:17;;;;;;;;;;;25.30;99.90;;;;;;5043757;28;20404;-64
2023/02/10 09:53:43;;;;;;;;;;;25.30;99.90;;;;;;5044191;28;20392;-64
2023/02/10 09:56:14;;;;;;;;;;;25.10;99.90;;;;;;5044080;28;19916;-62
2023/02/10 09:58:43;;;;;;;;;;;25.10;99.90;;;;;;5058028;22;19966;-64
2023/02/10 10:01:09;;;;;;;;;;;25.10;99.90;;;;;;5064343;28;20323;-64
2023/02/10 10:03:41;;;;;;;;;;;24.90;99.90;;;;;;5063637;28;19916;-67
2023/02/10 10:06:11;;;;;;;;;;;24.90;99.90;;;;;;5064215;28;20642;-64
2023/02/10 10:08:55;;;;;;;;;;;24.90;99.90;;;;;;5064141;28;20443;-62
2023/02/10 10:11:31;;;;;;;;;;;24.70;99.90;;;;;;5059355;28;20098;-63
2023/02/10 10:13:57;;;;;;;;;;;24.60;99.90;;;;;;5058318;28;19932;-63
2023/02/10 10:16:24;;;;;;;;;;;24.50;99.90;;;;;;5063279;28;19908;-64
2023/02/10 10:19:08;;;;;;;;;;;24.40;99.90;;;;;;5064171;28;19908;-64
2023/02/10 10:21:51;;;;;;;;;;;24.40;99.90;;;;;;5043616;28;19909;-68
2023/02/10 10:24:36;;;;;;;;;;;24.30;99.90;;;;;;5043979;28;20364;-65
2023/02/10 10:27:02;;;;;;;;;;;24.20;99.90;;;;;;5044084;28;20319;-63
2023/02/10 10:29:29;;;;;;;;;;;24.20;99.90;;;;;;5043930;28;19909;-63
2023/02/10 10:32:06;;;;;;;;;;;24.20;99.90;;;;;;5043257;28;19927;-69
2023/02/10 10:34:36;;;;;;;;;;;24.20;99.90;;;;;;5041932;28;19913;-64
2023/02/10 10:37:05;;;;;;;;;;;24.00;99.90;;;;;;5040489;28;20542;-64
2023/02/10 10:39:32;;;;;;;;;;;23.90;99.90;;;;;;5043917;28;19955;-63
2023/02/10 10:42:04;;;;;;;;;;;24.00;99.90;;;;;;5045506;28;20237;-69
2023/02/10 10:44:31;;;;;;;;;;;24.20;99.90;;;;;;5047900;28;19976;-65
2023/02/10 10:47:00;;;;;;;;;;;24.10;99.90;;;;;;5047390;28;19909;-62
2023/02/10 10:49:27;;;;;;;;;;;24.10;99.90;;;;;;5047473;28;20052;-63
2023/02/10 10:51:54;;;;;;;;;;;24.10;99.90;;;;;;5048154;28;19916;-67
2023/02/10 10:54:21;;;;;;;;;;;24.20;99.90;;;;;;5047544;28;19962;-62
2023/02/10 10:56:48;;;;;;;;;;;24.10;99.90;;;;;;5047317;28;19954;-63
2023/02/10 10:59:23;;;;;;;;;;;23.90;99.90;;;;;;5047746;28;19982;-62
2023/02/10 11:01:51;;;;;;;;;;;23.70;99.90;;;;;;5047463;28;20380;-63
2023/02/10 11:04:19;;;;;;;;;;;23.60;99.90;;;;;;5047524;28;19916;-64
2023/02/10 11:07:09;;;;;;;;;;;23.50;99.90;;;;;;5047982;28;20622;-65
2023/02/10 11:09:36;;;;;;;;;;;23.50;99.90;;;;;;5042616;28;19909;-63
2023/02/10 11:12:03;;;;;;;;;;;23.30;99.90;;;;;;5041069;28;19954;-69
2023/02/10 11:14:30;;;;;;;;;;;23.20;99.90;;;;;;5047459;28;19908;-65
2023/02/10 11:17:04;;;;;;;;;;;23.10;99.90;;;;;;5047819;28;19916;-69
2023/02/10 11:19:32;;;;;;;;;;;23.00;99.90;;;;;;5047277;28;19916;-64
2023/02/10 11:22:01;;;;;;;;;;;23.00;99.90;;;;;;5046520;28;19916;-65
2023/02/10 11:24:32;;;;;;;;;;;23.00;99.90;;;;;;5046969;28;19909;-65
2023/02/10 11:27:02;;;;;;;;;;;23.00;99.90;;;;;;5047085;28;19995;-64
2023/02/10 11:29:29;;;;;;;;;;;23.00;99.90;;;;;;5045274;28;19912;-66
2023/02/10 11:31:56;;;;;;;;;;;22.90;99.90;;;;;;5029782;28;20752;-62
2023/02/10 11:34:31;;;;;;;;;;;22.90;99.90;;;;;;5046128;28;20034;-66
2023/02/10 11:36:59;;;;;;;;;;;22.90;99.90;;;;;;5043233;28;20430;-62
2023/02/10 11:39:35;;;;;;;;;;;23.00;99.90;;;;;;5040473;28;19909;-61
2023/02/10 11:42:09;;;;;;;;;;;23.10;99.90;;;;;;5045818;28;20311;-63
2023/02/10 11:44:35;;;;;;;;;;;23.30;99.90;;;;;;5043373;28;19908;-63
2023/02/10 11:47:05;;;;;;;;;;;23.10;99.90;;;;;;5045013;28;19913;-70
2023/02/10 11:49:34;;;;;;;;;;;23.00;99.90;;;;;;4347201;28;10000729;-70
2023/02/10 11:52:01;;;;;;;;;;;23.00;99.90;;;;;;5044251;28;20062;-71
2023/02/10 11:54:28;;;;;;;;;;;22.90;99.90;;;;;;5044201;28;19919;-71
2023/02/10 11:59:54;;;;;;;;;;;22.90;99.90;;;;;;5043659;28;19951;-71
2023/02/10 12:02:29;;;;;;;;;;;23.00;99.90;;;;;;5045499;28;20273;-62
2023/02/10 12:04:56;;;;;;;;;;;23.00;99.90;;;;;;5033593;28;20353;-61
2023/02/10 12:07:31;;;;;;;;;;;22.90;99.90;;;;;;5037849;28;19963;-71
2023/02/10 12:10:18;;;;;;;;;;;22.90;99.90;;;;;;5044497;28;20581;-71
2023/02/10 12:12:58;;;;;;;;;;;22.80;99.90;;;;;;5043649;28;20390;-65
2023/02/10 12:15:27;;;;;;;;;;;22.80;99.90;;;;;;5045372;28;19909;-70
2023/02/10 12:17:56;;;;;;;;;;;22.80;99.90;;;;;;5046162;28;20681;-63
2023/02/10 12:20:43;;;;;;;;;;;22.80;99.90;;;;;;5045379;28;19958;-65
2023/02/10 12:23:10;;;;;;;;;;;22.80;99.90;;;;;;5041184;28;20011;-63
2023/02/10 12:25:42;;;;;;;;;;;22.80;99.90;;;;;;5047962;28;20290;-64
2023/02/10 12:28:10;;;;;;;;;;;22.70;99.90;;;;;;5047004;28;20353;-63
2023/02/10 12:30:46;;;;;;;;;;;22.80;99.90;;;;;;5047230;28;19912;-61
2023/02/10 12:33:12;;;;;;;;;;;22.70;99.90;;;;;;5046646;28;19908;-61
2023/02/10 12:35:56;;;;;;;;;;;22.60;99.90;;;;;;5044311;28;20168;-64
2023/02/10 12:38:30;;;;;;;;;;;22.50;99.90;;;;;;5047105;28;19962;-71
2023/02/10 12:40:57;;;;;;;;;;;22.60;99.90;;;;;;5046554;28;20684;-70
2023/02/10 12:43:29;;;;;;;;;;;22.40;99.90;;;;;;5046656;28;19917;-71
2023/02/10 12:46:02;;;;;;;;;;;22.30;99.90;;;;;;5044972;28;20302;-61
2023/02/10 12:48:44;;;;;;;;;;;22.30;99.90;;;;;;5048025;28;19962;-61
2023/02/10 12:51:15;;;;;;;;;;;22.30;99.90;;;;;;5041429;28;19997;-63
2023/02/10 12:53:48;;;;;;;;;;;22.20;99.90;;;;;;5045955;28;19912;-70
2023/02/10 12:56:18;;;;;;;;;;;22.10;99.90;;;;;;5044148;28;19912;-65
2023/02/10 12:58:50;;;;;;;;;;;22.10;99.90;;;;;;5042723;28;19917;-65
2023/02/10 13:01:46;;;;;;;;;;;22.10;99.90;;;;;;5046482;28;20020;-65
2023/02/10 13:04:30;;;;;;;;;;;22.10;99.90;;;;;;4984644;28;19957;-65
2023/02/10 13:06:59;;;;;;;;;;;22.00;99.90;;;;;;4991721;28;19960;-63
2023/02/10 13:09:47;;;;;;;;;;;22.00;99.90;;;;;;4986517;28;20332;-62
2023/02/10 13:12:13;;;;;;;;;;;22.00;99.90;;;;;;4991009;28;20481;-63
2023/02/10 13:14:41;;;;;;;;;;;21.90;99.90;;;;;;4988105;28;20369;-61
2023/02/10 13:17:10;;;;;;;;;;;21.80;99.90;;;;;;4987865;28;20360;-63
2023/02/10 13:19:54;;;;;;;;;;;21.80;99.90;;;;;;4969296;28;19948;-64
2023/02/10 13:22:24;;;;;;;;;;;21.90;99.90;;;;;;4990727;28;19917;-64
2023/02/10 13:24:59;;;;;;;;;;;21.90;99.90;;;;;;4991029;28;19953;-61
2023/02/10 13:27:45;;;;;;;;;;;21.90;99.90;;;;;;4996578;28;19924;-65
2023/02/10 13:30:42;;;;;;;;;;;21.80;99.90;;;;;;4995541;28;20040;-61
2023/02/10 13:33:21;;;;;;;;;;;21.80;99.90;;;;;;4995901;28;19913;-62
2023/02/10 13:35:49;;;;;;;;;;;21.80;99.90;;;;;;4988158;28;19910;-65
2023/02/10 13:38:18;;;;;;;;;;;21.80;99.90;;;;;;4992428;28;20152;-61
2023/02/10 13:40:52;;;;;;;;;;;21.90;99.90;;;;;;5020197;28;20332;-71
2023/02/10 13:43:24;;;;;;;;;;;21.80;99.90;;;;;;5047999;28;20396;-61
2023/02/10 13:45:52;;;;;;;;;;;21.80;99.90;;;;;;5033739;28;20179;-70
2023/02/10 13:48:28;;;;;;;;;;;21.70;99.90;;;;;;5047716;28;20311;-65
2023/02/10 13:50:56;;;;;;;;;;;21.60;99.90;;;;;;5047499;28;19917;-61
2023/02/10 13:53:34;;;;;;;;;;;21.50;99.90;;;;;;5046685;28;20265;-70
2023/02/10 13:56:12;;;;;;;;;;;21.40;99.90;;;;;;5045265;28;20352;-62
2023/02/10 13:58:52;;;;;;;;;;;21.40;99.90;;;;;;5045020;28;20031;-62
2023/02/10 14:01:32;;;;;;;;;;;21.30;99.90;;;;;;5048157;28;19966;-63
2023/02/10 14:03:59;;;;;;;;;;;21.20;99.90;;;;;;5043785;28;19917;-64
2023/02/10 14:06:39;;;;;;;;;;;21.20;99.90;;;;;;5047815;28;20000;-71
2023/02/10 14:09:17;;;;;;;;;;;21.10;99.90;;;;;;5047599;28;20372;-72
2023/02/10 14:11:46;;;;;;;;;;;21.10;99.90;;;;;;5048331;28;19913;-65
2023/02/10 14:14:18;;;;;;;;;;;21.10;99.90;;;;;;5045098;28;20019;-61
2023/02/10 14:16:46;;;;;;;;;;;21.30;99.90;;;;;;5046132;28;20254;-62
2023/02/10 14:19:46;;;;;;;;;;;21.30;99.90;;;;;;5048616;28;19913;-62
2023/02/10 14:22:24;;;;;;;;;;;21.20;99.90;;;;;;4967536;28;19917;-64
2023/02/10 14:24:53;;;;;;;;;;;21.30;99.90;;;;;;4960816;28;19914;-65
2023/02/10 14:27:20;;;;;;;;;;;21.20;99.90;;;;;;4959614;28;20509;-66
2023/02/10 14:30:09;;;;;;;;;;;21.20;99.90;;;;;;4962318;28;19925;-64